sensor_id;sensor_type;location;lat;lon;timestamp;temperature;humidity
23100;DHT22;53791;50.696;4.396;2022-10-17T00:00:59;16.10;99.90
23100;DHT22;53791;50.696;4.396;2022-10-17T00:03:27;16.20;99.90
23100;DHT22;53791;50.696;4.396;2022-10-17T00:05:55;16.10;99.90
23100;DHT22;53791;50.696;4.396;2022-10-17T00:08:22;16.10;99.90
23100;DHT22;53791;50.696;4.396;2022-10-17T00:10:59;16.20;99.90
23100;DHT22;53791;50.696;4.396;2022-10-17T00:13:26;16.10;99.90
23100;DHT22;53791;50.696;4.396;2022-10-17T00:15:53;16.10;99.90
23100;DHT22;53791;50.696;4.396;2022-10-17T00:18:21;16.20;99.90
23100;DHT22;53791;50.696;4.396;2022-10-17T00:20:49;16.10;99.90
23100;DHT22;53791;50.696;4.396;2022-10-17T00:23:16;16.20;99.90
23100;DHT22;53791;50.696;4.396;2022-10-17T00:25:44;16.10;99.90
23100;DHT22;53791;50.696;4.396;2022-10-17T00:28:13;16.20;99.90
23100;DHT22;53791;50.696;4.396;2022-10-17T00:30:41;16.20;99.90
23100;DHT22;53791;50.696;4.396;2022-10-17T00:33:08;16.20;99.90
23100;DHT22;53791;50.696;4.396;2022-10-17T00:35:36;16.20;99.90
23100;DHT22;53791;50.696;4.396;2022-10-17T00:38:03;16.20;99.90
23100;DHT22;53791;50.696;4.396;2022-10-17T00:40:31;16.20;99.90
23100;DHT22;53791;50.696;4.396;2022-10-17T00:42:59;16.30;99.90
23100;DHT22;53791;50.696;4.396;2022-10-17T00:45:28;16.30;99.90
23100;DHT22;53791;50.696;4.396;2022-10-17T00:48:02;16.30;99.90
23100;DHT22;53791;50.696;4.396;2022-10-17T00:50:30;16.30;99.90
23100;DHT22;53791;50.696;4.396;2022-10-17T00:53:00;16.30;99.90
23100;DHT22;53791;50.696;4.396;2022-10-17T00:55:31;16.30;99.90
23100;DHT22;53791;50.696;4.396;2022-10-17T00:58:01;16.30;99.90
23100;DHT22;53791;50.696;4.396;2022-10-17T01:00:29;16.30;99.90
23100;DHT22;53791;50.696;4.396;2022-10-17T01:02:57;16.40;99.90
23100;DHT22;53791;50.696;4.396;2022-10-17T01:05:25;16.40;99.90
23100;DHT22;53791;50.696;4.396;2022-10-17T01:07:52;16.40;99.90
23100;DHT22;53791;50.696;4.396;2022-10-17T01:10:21;16.40;99.90
23100;DHT22;53791;50.696;4.396;2022-10-17T01:13:05;16.50;99.90
23100;DHT22;53791;50.696;4.396;2022-10-17T01:15:37;16.50;99.90
23100;DHT22;53791;50.696;4.396;2022-10-17T01:18:31;16.50;99.90
23100;DHT22;53791;50.696;4.396;2022-10-17T01:32:09;16.90;99.90
23100;DHT22;53791;50.696;4.396;2022-10-17T01:40:08;17.00;99.90
23100;DHT22;53791;50.696;4.396;2022-10-17T01:42:43;17.00;99.90
23100;DHT22;53791;50.696;4.396;2022-10-17T01:45:19;17.10;99.90
23100;DHT22;53791;50.696;4.396;2022-10-17T01:47:48;17.10;99.90
23100;DHT22;53791;50.696;4.396;2022-10-17T01:50:29;17.20;99.90
23100;DHT22;53791;50.696;4.396;2022-10-17T01:53:05;17.20;99.90
23100;DHT22;53791;50.696;4.396;2022-10-17T01:55:37;17.10;99.90
23100;DHT22;53791;50.696;4.396;2022-10-17T01:58:12;17.20;99.90
23100;DHT22;53791;50.696;4.396;2022-10-17T02:00:37;17.20;99.90
23100;DHT22;53791;50.696;4.396;2022-10-17T02:03:10;17.10;99.90
23100;DHT22;53791;50.696;4.396;2022-10-17T02:05:39;17.20;99.90
23100;DHT22;53791;50.696;4.396;2022-10-17T02:08:07;17.20;99.90
23100;DHT22;53791;50.696;4.396;2022-10-17T02:10:58;17.10;99.90
23100;DHT22;53791;50.696;4.396;2022-10-17T02:16:29;17.20;99.90
23100;DHT22;53791;50.696;4.396;2022-10-17T02:19:21;17.10;99.90
23100;DHT22;53791;50.696;4.396;2022-10-17T02:24:31;17.30;99.90
23100;DHT22;53791;50.696;4.396;2022-10-17T02:27:05;17.20;99.90
23100;DHT22;53791;50.696;4.396;2022-10-17T02:29:42;17.20;99.90
23100;DHT22;53791;50.696;4.396;2022-10-17T02:32:10;17.10;99.90
23100;DHT22;53791;50.696;4.396;2022-10-17T02:37:13;17.10;99.90
23100;DHT22;53791;50.696;4.396;2022-10-17T02:39:42;17.10;99.90
23100;DHT22;53791;50.696;4.396;2022-10-17T02:42:12;17.00;99.90
23100;DHT22;53791;50.696;4.396;2022-10-17T02:44:42;17.10;99.90
23100;DHT22;53791;50.696;4.396;2022-10-17T02:47:18;17.10;99.90
23100;DHT22;53791;50.696;4.396;2022-10-17T02:49:53;17.20;99.90
23100;DHT22;53791;50.696;4.396;2022-10-17T02:52:22;17.20;99.90
23100;DHT22;53791;50.696;4.396;2022-10-17T02:55:00;17.20;99.90
23100;DHT22;53791;50.696;4.396;2022-10-17T02:57:26;17.10;99.90
23100;DHT22;53791;50.696;4.396;2022-10-17T02:59:54;17.10;99.90
23100;DHT22;53791;50.696;4.396;2022-10-17T03:02:22;17.10;99.90
23100;DHT22;53791;50.696;4.396;2022-10-17T03:04:49;17.10;99.90
23100;DHT22;53791;50.696;4.396;2022-10-17T03:07:17;17.10;99.90
23100;DHT22;53791;50.696;4.396;2022-10-17T03:09:44;17.00;99.90
23100;DHT22;53791;50.696;4.396;2022-10-17T03:12:12;17.20;99.90
23100;DHT22;53791;50.696;4.396;2022-10-17T03:14:39;17.20;99.90
23100;DHT22;53791;50.696;4.396;2022-10-17T03:17:07;17.20;99.90
23100;DHT22;53791;50.696;4.396;2022-10-17T03:19:34;17.20;99.90
23100;DHT22;53791;50.696;4.396;2022-10-17T03:22:02;17.20;99.90
23100;DHT22;53791;50.696;4.396;2022-10-17T03:24:29;17.10;99.90
23100;DHT22;53791;50.696;4.396;2022-10-17T03:26:57;17.10;99.90
23100;DHT22;53791;50.696;4.396;2022-10-17T03:29:26;17.20;99.90
23100;DHT22;53791;50.696;4.396;2022-10-17T03:31:54;17.20;99.90
23100;DHT22;53791;50.696;4.396;2022-10-17T03:34:22;17.10;99.90
23100;DHT22;53791;50.696;4.396;2022-10-17T03:36:49;17.20;99.90
23100;DHT22;53791;50.696;4.396;2022-10-17T03:39:17;17.10;99.90
23100;DHT22;53791;50.696;4.396;2022-10-17T03:41:44;17.20;99.90
23100;DHT22;53791;50.696;4.396;2022-10-17T03:44:12;17.20;99.90
23100;DHT22;53791;50.696;4.396;2022-10-17T03:46:39;17.30;99.90
23100;DHT22;53791;50.696;4.396;2022-10-17T03:49:08;17.30;99.90
23100;DHT22;53791;50.696;4.396;2022-10-17T03:51:36;17.30;99.90
23100;DHT22;53791;50.696;4.396;2022-10-17T03:54:03;17.50;99.90
23100;DHT22;53791;50.696;4.396;2022-10-17T03:56:31;17.50;99.90
23100;DHT22;53791;50.696;4.396;2022-10-17T03:58:58;17.40;99.90
23100;DHT22;53791;50.696;4.396;2022-10-17T04:01:26;17.40;99.90
23100;DHT22;53791;50.696;4.396;2022-10-17T04:03:55;17.30;99.90
23100;DHT22;53791;50.696;4.396;2022-10-17T04:06:23;17.30;99.90
23100;DHT22;53791;50.696;4.396;2022-10-17T04:08:50;17.30;99.90
23100;DHT22;53791;50.696;4.396;2022-10-17T04:11:19;17.30;99.90
23100;DHT22;53791;50.696;4.396;2022-10-17T04:13:51;17.20;99.90
23100;DHT22;53791;50.696;4.396;2022-10-17T04:16:18;17.30;99.90
23100;DHT22;53791;50.696;4.396;2022-10-17T04:18:46;17.30;99.90
23100;DHT22;53791;50.696;4.396;2022-10-17T04:21:16;17.20;99.90
23100;DHT22;53791;50.696;4.396;2022-10-17T04:23:44;17.20;99.90
23100;DHT22;53791;50.696;4.396;2022-10-17T04:26:11;17.30;99.90
23100;DHT22;53791;50.696;4.396;2022-10-17T04:28:39;17.30;99.90
23100;DHT22;53791;50.696;4.396;2022-10-17T04:31:09;17.30;99.90
23100;DHT22;53791;50.696;4.396;2022-10-17T04:33:37;17.30;99.90
23100;DHT22;53791;50.696;4.396;2022-10-17T04:36:13;17.30;99.90
23100;DHT22;53791;50.696;4.396;2022-10-17T04:38:41;17.20;99.90
23100;DHT22;53791;50.696;4.396;2022-10-17T04:41:11;17.10;99.90
23100;DHT22;53791;50.696;4.396;2022-10-17T04:43:39;17.10;99.90
23100;DHT22;53791;50.696;4.396;2022-10-17T04:46:10;17.10;99.90
23100;DHT22;53791;50.696;4.396;2022-10-17T04:48:39;17.10;99.90
23100;DHT22;53791;50.696;4.396;2022-10-17T04:51:12;17.20;99.90
23100;DHT22;53791;50.696;4.396;2022-10-17T04:53:41;17.30;99.90
23100;DHT22;53791;50.696;4.396;2022-10-17T04:56:14;17.30;99.90
23100;DHT22;53791;50.696;4.396;2022-10-17T04:58:43;17.30;99.90
23100;DHT22;53791;50.696;4.396;2022-10-17T05:01:13;17.30;99.90
23100;DHT22;53791;50.696;4.396;2022-10-17T05:03:41;17.40;99.90
23100;DHT22;53791;50.696;4.396;2022-10-17T05:06:14;17.50;99.90
23100;DHT22;53791;50.696;4.396;2022-10-17T05:08:42;17.40;99.90
23100;DHT22;53791;50.696;4.396;2022-10-17T05:11:21;17.30;99.90
23100;DHT22;53791;50.696;4.396;2022-10-17T05:13:54;17.30;99.90
23100;DHT22;53791;50.696;4.396;2022-10-17T05:16:23;17.30;99.90
23100;DHT22;53791;50.696;4.396;2022-10-17T05:18:53;17.40;99.90
23100;DHT22;53791;50.696;4.396;2022-10-17T05:21:22;17.30;99.90
23100;DHT22;53791;50.696;4.396;2022-10-17T05:23:51;17.20;99.90
23100;DHT22;53791;50.696;4.396;2022-10-17T05:26:19;17.20;99.90
23100;DHT22;53791;50.696;4.396;2022-10-17T05:28:46;17.10;99.90
23100;DHT22;53791;50.696;4.396;2022-10-17T05:31:14;17.10;99.90
23100;DHT22;53791;50.696;4.396;2022-10-17T05:33:42;17.10;99.90
23100;DHT22;53791;50.696;4.396;2022-10-17T05:36:09;17.10;99.90
23100;DHT22;53791;50.696;4.396;2022-10-17T05:38:37;17.10;99.90
23100;DHT22;53791;50.696;4.396;2022-10-17T05:41:05;17.10;99.90
23100;DHT22;53791;50.696;4.396;2022-10-17T05:43:33;17.20;99.90
23100;DHT22;53791;50.696;4.396;2022-10-17T05:46:05;17.20;99.90
23100;DHT22;53791;50.696;4.396;2022-10-17T05:48:33;17.20;99.90
23100;DHT22;53791;50.696;4.396;2022-10-17T05:51:03;17.30;99.90
23100;DHT22;53791;50.696;4.396;2022-10-17T05:53:33;17.30;99.90
23100;DHT22;53791;50.696;4.396;2022-10-17T05:56:03;17.40;99.90
23100;DHT22;53791;50.696;4.396;2022-10-17T05:58:32;17.40;99.90
23100;DHT22;53791;50.696;4.396;2022-10-17T06:01:02;17.40;99.90
23100;DHT22;53791;50.696;4.396;2022-10-17T06:03:29;17.40;99.90
23100;DHT22;53791;50.696;4.396;2022-10-17T06:06:05;17.40;99.90
23100;DHT22;53791;50.696;4.396;2022-10-17T06:08:36;17.30;99.90
23100;DHT22;53791;50.696;4.396;2022-10-17T06:11:03;17.30;99.90
23100;DHT22;53791;50.696;4.396;2022-10-17T06:13:30;17.30;99.90
23100;DHT22;53791;50.696;4.396;2022-10-17T06:15:58;17.30;99.90
23100;DHT22;53791;50.696;4.396;2022-10-17T06:18:25;17.50;99.90
23100;DHT22;53791;50.696;4.396;2022-10-17T06:20:53;17.60;99.90
23100;DHT22;53791;50.696;4.396;2022-10-17T06:23:20;17.60;99.90
23100;DHT22;53791;50.696;4.396;2022-10-17T06:25:48;17.70;99.90
23100;DHT22;53791;50.696;4.396;2022-10-17T06:28:15;17.80;99.90
23100;DHT22;53791;50.696;4.396;2022-10-17T06:30:43;17.70;99.90
23100;DHT22;53791;50.696;4.396;2022-10-17T06:33:11;17.80;99.90
23100;DHT22;53791;50.696;4.396;2022-10-17T06:35:38;17.90;99.90
23100;DHT22;53791;50.696;4.396;2022-10-17T06:38:05;17.90;99.90
23100;DHT22;53791;50.696;4.396;2022-10-17T06:40:33;17.80;99.90
23100;DHT22;53791;50.696;4.396;2022-10-17T06:43:01;18.00;99.90
23100;DHT22;53791;50.696;4.396;2022-10-17T06:45:28;18.00;99.90
23100;DHT22;53791;50.696;4.396;2022-10-17T06:47:56;18.10;99.90
23100;DHT22;53791;50.696;4.396;2022-10-17T06:50:23;18.20;99.90
23100;DHT22;53791;50.696;4.396;2022-10-17T06:52:51;18.30;99.90
23100;DHT22;53791;50.696;4.396;2022-10-17T06:55:18;18.30;99.90
23100;DHT22;53791;50.696;4.396;2022-10-17T06:57:46;18.30;99.90
23100;DHT22;53791;50.696;4.396;2022-10-17T07:00:14;18.40;99.90
23100;DHT22;53791;50.696;4.396;2022-10-17T07:02:42;18.40;99.90
23100;DHT22;53791;50.696;4.396;2022-10-17T07:05:09;18.40;99.90
23100;DHT22;53791;50.696;4.396;2022-10-17T07:07:37;18.30;99.90
23100;DHT22;53791;50.696;4.396;2022-10-17T07:10:05;18.40;99.90
23100;DHT22;53791;50.696;4.396;2022-10-17T07:12:35;18.30;99.90
23100;DHT22;53791;50.696;4.396;2022-10-17T07:15:03;18.30;99.90
23100;DHT22;53791;50.696;4.396;2022-10-17T07:17:31;18.30;99.90
23100;DHT22;53791;50.696;4.396;2022-10-17T07:20:03;18.30;99.90
23100;DHT22;53791;50.696;4.396;2022-10-17T07:22:27;18.30;99.90
23100;DHT22;53791;50.696;4.396;2022-10-17T07:24:55;18.30;99.90
23100;DHT22;53791;50.696;4.396;2022-10-17T07:27:22;18.40;99.90
23100;DHT22;53791;50.696;4.396;2022-10-17T07:29:50;18.40;99.90
23100;DHT22;53791;50.696;4.396;2022-10-17T07:32:17;18.30;99.90
23100;DHT22;53791;50.696;4.396;2022-10-17T07:34:45;18.20;99.90
23100;DHT22;53791;50.696;4.396;2022-10-17T07:37:12;18.20;99.90
23100;DHT22;53791;50.696;4.396;2022-10-17T07:39:40;18.20;99.90
23100;DHT22;53791;50.696;4.396;2022-10-17T07:42:07;18.10;99.90
23100;DHT22;53791;50.696;4.396;2022-10-17T07:44:35;18.10;99.90
23100;DHT22;53791;50.696;4.396;2022-10-17T07:47:03;18.00;99.90
23100;DHT22;53791;50.696;4.396;2022-10-17T07:49:30;17.90;99.90
23100;DHT22;53791;50.696;4.396;2022-10-17T07:51:57;17.80;99.90
23100;DHT22;53791;50.696;4.396;2022-10-17T07:54:25;17.80;99.90
23100;DHT22;53791;50.696;4.396;2022-10-17T07:56:52;18.00;99.90
23100;DHT22;53791;50.696;4.396;2022-10-17T07:59:20;17.90;99.90
23100;DHT22;53791;50.696;4.396;2022-10-17T08:01:47;17.90;99.90
23100;DHT22;53791;50.696;4.396;2022-10-17T08:04:15;17.90;99.90
23100;DHT22;53791;50.696;4.396;2022-10-17T08:06:42;17.80;99.90
23100;DHT22;53791;50.696;4.396;2022-10-17T08:09:10;17.80;99.90
23100;DHT22;53791;50.696;4.396;2022-10-17T08:11:38;17.90;99.90
23100;DHT22;53791;50.696;4.396;2022-10-17T08:14:08;17.80;99.90
23100;DHT22;53791;50.696;4.396;2022-10-17T08:16:36;17.80;99.90
23100;DHT22;53791;50.696;4.396;2022-10-17T08:19:04;17.50;99.90
23100;DHT22;53791;50.696;4.396;2022-10-17T08:21:33;17.40;99.90
23100;DHT22;53791;50.696;4.396;2022-10-17T08:24:01;17.30;99.90
23100;DHT22;53791;50.696;4.396;2022-10-17T08:26:28;17.20;99.90
23100;DHT22;53791;50.696;4.396;2022-10-17T08:28:56;17.30;99.90
23100;DHT22;53791;50.696;4.396;2022-10-17T08:31:23;17.30;99.90
23100;DHT22;53791;50.696;4.396;2022-10-17T08:33:52;17.40;99.90
23100;DHT22;53791;50.696;4.396;2022-10-17T08:36:25;17.40;99.90
23100;DHT22;53791;50.696;4.396;2022-10-17T08:38:50;17.40;99.90
23100;DHT22;53791;50.696;4.396;2022-10-17T08:47:13;17.40;99.90
23100;DHT22;53791;50.696;4.396;2022-10-17T08:49:48;17.20;99.90
23100;DHT22;53791;50.696;4.396;2022-10-17T08:52:30;17.10;99.90
23100;DHT22;53791;50.696;4.396;2022-10-17T08:54:56;17.00;99.90
23100;DHT22;53791;50.696;4.396;2022-10-17T08:57:25;16.90;99.90
23100;DHT22;53791;50.696;4.396;2022-10-17T08:59:54;16.90;99.90
23100;DHT22;53791;50.696;4.396;2022-10-17T09:02:49;16.90;99.90
23100;DHT22;53791;50.696;4.396;2022-10-17T09:05:35;16.90;99.90
23100;DHT22;53791;50.696;4.396;2022-10-17T09:08:15;16.80;99.90
23100;DHT22;53791;50.696;4.396;2022-10-17T09:16:31;16.80;99.90
23100;DHT22;53791;50.696;4.396;2022-10-17T09:19:18;16.80;99.90
23100;DHT22;53791;50.696;4.396;2022-10-17T09:21:58;16.90;99.90
23100;DHT22;53791;50.696;4.396;2022-10-17T09:25:00;17.00;99.90
23100;DHT22;53791;50.696;4.396;2022-10-17T09:27:44;17.00;99.90
23100;DHT22;53791;50.696;4.396;2022-10-17T09:30:32;17.00;99.90
23100;DHT22;53791;50.696;4.396;2022-10-17T09:32:58;16.90;99.90
23100;DHT22;53791;50.696;4.396;2022-10-17T09:35:27;16.90;99.90
23100;DHT22;53791;50.696;4.396;2022-10-17T09:37:56;17.00;99.90
23100;DHT22;53791;50.696;4.396;2022-10-17T09:40:33;17.10;99.90
23100;DHT22;53791;50.696;4.396;2022-10-17T09:42:57;17.20;99.90
23100;DHT22;53791;50.696;4.396;2022-10-17T09:45:24;17.20;99.90
23100;DHT22;53791;50.696;4.396;2022-10-17T09:50:43;17.30;99.90
23100;DHT22;53791;50.696;4.396;2022-10-17T09:53:29;17.40;99.90
23100;DHT22;53791;50.696;4.396;2022-10-17T09:55:59;17.50;99.90
23100;DHT22;53791;50.696;4.396;2022-10-17T09:58:55;17.40;99.90
23100;DHT22;53791;50.696;4.396;2022-10-17T10:01:28;17.50;99.90
23100;DHT22;53791;50.696;4.396;2022-10-17T10:04:10;17.50;99.90
23100;DHT22;53791;50.696;4.396;2022-10-17T10:06:40;17.60;99.90
23100;DHT22;53791;50.696;4.396;2022-10-17T10:09:23;17.60;99.90
23100;DHT22;53791;50.696;4.396;2022-10-17T10:11:51;17.70;99.90
23100;DHT22;53791;50.696;4.396;2022-10-17T10:14:28;17.70;99.90
23100;DHT22;53791;50.696;4.396;2022-10-17T10:16:58;17.80;99.90
23100;DHT22;53791;50.696;4.396;2022-10-17T10:19:31;17.80;99.90
23100;DHT22;53791;50.696;4.396;2022-10-17T10:22:12;17.90;99.90
23100;DHT22;53791;50.696;4.396;2022-10-17T10:24:34;17.90;99.90
23100;DHT22;53791;50.696;4.396;2022-10-17T10:27:02;17.90;99.90
23100;DHT22;53791;50.696;4.396;2022-10-17T10:29:35;18.00;99.90
23100;DHT22;53791;50.696;4.396;2022-10-17T10:32:27;18.10;99.90
23100;DHT22;53791;50.696;4.396;2022-10-17T10:35:00;18.00;99.90
23100;DHT22;53791;50.696;4.396;2022-10-17T10:37:37;18.10;99.90
23100;DHT22;53791;50.696;4.396;2022-10-17T10:40:14;18.20;99.90
23100;DHT22;53791;50.696;4.396;2022-10-17T10:42:38;18.10;99.90
23100;DHT22;53791;50.696;4.396;2022-10-17T10:45:39;18.10;99.90
23100;DHT22;53791;50.696;4.396;2022-10-17T10:48:01;18.00;99.90
23100;DHT22;53791;50.696;4.396;2022-10-17T10:50:44;18.00;99.90
23100;DHT22;53791;50.696;4.396;2022-10-17T10:55:59;18.00;99.90
23100;DHT22;53791;50.696;4.396;2022-10-17T10:58:45;18.00;99.90
23100;DHT22;53791;50.696;4.396;2022-10-17T11:01:37;17.80;99.90
23100;DHT22;53791;50.696;4.396;2022-10-17T11:04:20;18.00;99.90
23100;DHT22;53791;50.696;4.396;2022-10-17T11:06:49;17.90;99.90
23100;DHT22;53791;50.696;4.396;2022-10-17T11:12:27;18.00;99.90
23100;DHT22;53791;50.696;4.396;2022-10-17T11:15:24;17.90;99.90
23100;DHT22;53791;50.696;4.396;2022-10-17T11:18:07;17.90;99.90
23100;DHT22;53791;50.696;4.396;2022-10-17T11:20:55;17.80;99.90
23100;DHT22;53791;50.696;4.396;2022-10-17T11:23:37;17.90;99.90
23100;DHT22;53791;50.696;4.396;2022-10-17T11:26:06;17.90;99.90
23100;DHT22;53791;50.696;4.396;2022-10-17T11:28:35;17.90;99.90
23100;DHT22;53791;50.696;4.396;2022-10-17T11:31:15;17.90;99.90
23100;DHT22;53791;50.696;4.396;2022-10-17T11:33:59;17.90;99.90
23100;DHT22;53791;50.696;4.396;2022-10-17T11:36:20;17.80;99.90
23100;DHT22;53791;50.696;4.396;2022-10-17T11:39:06;17.90;99.90
23100;DHT22;53791;50.696;4.396;2022-10-17T11:41:30;18.00;99.90
23100;DHT22;53791;50.696;4.396;2022-10-17T11:44:44;17.90;99.90
23100;DHT22;53791;50.696;4.396;2022-10-17T11:46:28;17.90;99.90
23100;DHT22;53791;50.696;4.396;2022-10-17T11:49:09;17.90;99.90
23100;DHT22;53791;50.696;4.396;2022-10-17T11:51:44;18.00;99.90
23100;DHT22;53791;50.696;4.396;2022-10-17T11:54:23;18.00;99.90
23100;DHT22;53791;50.696;4.396;2022-10-17T11:56:57;18.00;99.90
23100;DHT22;53791;50.696;4.396;2022-10-17T12:02:03;18.10;99.90
23100;DHT22;53791;50.696;4.396;2022-10-17T12:07:48;18.00;99.90
23100;DHT22;53791;50.696;4.396;2022-10-17T12:10:51;18.00;99.90
23100;DHT22;53791;50.696;4.396;2022-10-17T12:19:17;18.10;99.90
23100;DHT22;53791;50.696;4.396;2022-10-17T12:21:17;18.10;99.90
23100;DHT22;53791;50.696;4.396;2022-10-17T12:23:54;18.00;99.90
23100;DHT22;53791;50.696;4.396;2022-10-17T12:26:28;18.10;99.90
23100;DHT22;53791;50.696;4.396;2022-10-17T12:28:56;18.10;99.90
23100;DHT22;53791;50.696;4.396;2022-10-17T12:31:25;18.10;99.90
23100;DHT22;53791;50.696;4.396;2022-10-17T12:33:57;18.10;99.90
23100;DHT22;53791;50.696;4.396;2022-10-17T12:36:37;18.20;99.90
23100;DHT22;53791;50.696;4.396;2022-10-17T12:41:52;18.20;99.90
23100;DHT22;53791;50.696;4.396;2022-10-17T12:49:47;18.30;99.90
23100;DHT22;53791;50.696;4.396;2022-10-17T12:52:23;18.30;99.90
23100;DHT22;53791;50.696;4.396;2022-10-17T12:54:59;18.30;99.90
23100;DHT22;53791;50.696;4.396;2022-10-17T12:57:33;18.40;99.90
23100;DHT22;53791;50.696;4.396;2022-10-17T13:00:19;18.30;99.90
23100;DHT22;53791;50.696;4.396;2022-10-17T13:02:44;18.30;99.90
23100;DHT22;53791;50.696;4.396;2022-10-17T13:05:19;18.40;99.90
23100;DHT22;53791;50.696;4.396;2022-10-17T13:07:47;18.40;99.90
23100;DHT22;53791;50.696;4.396;2022-10-17T13:10:23;18.40;99.90
23100;DHT22;53791;50.696;4.396;2022-10-17T13:12:53;18.40;99.90
23100;DHT22;53791;50.696;4.396;2022-10-17T13:15:22;18.50;99.90
23100;DHT22;53791;50.696;4.396;2022-10-17T13:17:57;18.60;99.90
23100;DHT22;53791;50.696;4.396;2022-10-17T13:20:27;18.60;99.90
23100;DHT22;53791;50.696;4.396;2022-10-17T13:22:55;18.50;99.90
23100;DHT22;53791;50.696;4.396;2022-10-17T13:25:25;18.60;99.90
23100;DHT22;53791;50.696;4.396;2022-10-17T13:28:04;18.60;99.90
23100;DHT22;53791;50.696;4.396;2022-10-17T13:30:35;18.80;99.90
23100;DHT22;53791;50.696;4.396;2022-10-17T13:33:15;18.80;99.90
23100;DHT22;53791;50.696;4.396;2022-10-17T13:35:35;18.80;99.90
23100;DHT22;53791;50.696;4.396;2022-10-17T13:38:05;18.80;99.90
23100;DHT22;53791;50.696;4.396;2022-10-17T13:40:42;18.80;99.90
23100;DHT22;53791;50.696;4.396;2022-10-17T13:43:18;18.80;99.90
23100;DHT22;53791;50.696;4.396;2022-10-17T13:45:59;18.70;99.90
23100;DHT22;53791;50.696;4.396;2022-10-17T13:48:29;18.60;99.90
23100;DHT22;53791;50.696;4.396;2022-10-17T13:51:00;18.60;99.90
23100;DHT22;53791;50.696;4.396;2022-10-17T13:53:36;18.50;99.90
23100;DHT22;53791;50.696;4.396;2022-10-17T13:56:17;18.60;99.90
23100;DHT22;53791;50.696;4.396;2022-10-17T13:58:55;18.40;99.90
23100;DHT22;53791;50.696;4.396;2022-10-17T14:01:27;18.50;99.90
23100;DHT22;53791;50.696;4.396;2022-10-17T14:03:55;18.40;99.90
23100;DHT22;53791;50.696;4.396;2022-10-17T14:06:26;18.40;99.90
23100;DHT22;53791;50.696;4.396;2022-10-17T14:08:59;18.40;99.90
23100;DHT22;53791;50.696;4.396;2022-10-17T14:11:41;18.30;99.90
23100;DHT22;53791;50.696;4.396;2022-10-17T14:14:23;18.20;99.90
23100;DHT22;53791;50.696;4.396;2022-10-17T14:16:49;18.20;99.90
23100;DHT22;53791;50.696;4.396;2022-10-17T14:19:31;18.10;99.90
23100;DHT22;53791;50.696;4.396;2022-10-17T14:22:23;18.10;99.90
23100;DHT22;53791;50.696;4.396;2022-10-17T14:24:44;18.20;99.90
23100;DHT22;53791;50.696;4.396;2022-10-17T14:30:01;18.30;99.90
23100;DHT22;53791;50.696;4.396;2022-10-17T14:32:28;18.30;99.90
23100;DHT22;53791;50.696;4.396;2022-10-17T14:34:59;18.40;99.90
23100;DHT22;53791;50.696;4.396;2022-10-17T14:37:44;18.40;99.90
23100;DHT22;53791;50.696;4.396;2022-10-17T14:40:20;18.50;99.90
23100;DHT22;53791;50.696;4.396;2022-10-17T14:42:50;18.60;99.90
23100;DHT22;53791;50.696;4.396;2022-10-17T14:45:27;18.70;99.90
23100;DHT22;53791;50.696;4.396;2022-10-17T14:48:01;18.70;99.90
23100;DHT22;53791;50.696;4.396;2022-10-17T14:50:30;18.80;99.90
23100;DHT22;53791;50.696;4.396;2022-10-17T14:53:06;18.80;99.90
23100;DHT22;53791;50.696;4.396;2022-10-17T14:55:35;18.70;99.90
23100;DHT22;53791;50.696;4.396;2022-10-17T14:58:23;18.70;99.90
23100;DHT22;53791;50.696;4.396;2022-10-17T15:00:50;18.60;99.90
23100;DHT22;53791;50.696;4.396;2022-10-17T15:03:18;18.50;99.90
23100;DHT22;53791;50.696;4.396;2022-10-17T15:05:46;18.50;99.90
23100;DHT22;53791;50.696;4.396;2022-10-17T15:08:16;18.60;99.90
23100;DHT22;53791;50.696;4.396;2022-10-17T15:10:45;18.40;99.90
23100;DHT22;53791;50.696;4.396;2022-10-17T15:13:13;18.30;99.90
23100;DHT22;53791;50.696;4.396;2022-10-17T15:15:41;18.40;99.90
23100;DHT22;53791;50.696;4.396;2022-10-17T15:18:11;18.40;99.90
23100;DHT22;53791;50.696;4.396;2022-10-17T15:20:40;18.50;99.90
23100;DHT22;53791;50.696;4.396;2022-10-17T15:23:08;18.50;99.90
23100;DHT22;53791;50.696;4.396;2022-10-17T15:25:35;18.60;99.90
23100;DHT22;53791;50.696;4.396;2022-10-17T15:28:03;18.60;99.90
23100;DHT22;53791;50.696;4.396;2022-10-17T15:30:34;18.60;99.90
23100;DHT22;53791;50.696;4.396;2022-10-17T15:33:01;18.70;99.90
23100;DHT22;53791;50.696;4.396;2022-10-17T15:35:28;18.60;99.90
23100;DHT22;53791;50.696;4.396;2022-10-17T15:37:56;18.60;99.90
23100;DHT22;53791;50.696;4.396;2022-10-17T15:40:28;18.60;99.90
23100;DHT22;53791;50.696;4.396;2022-10-17T15:42:55;18.60;99.90
23100;DHT22;53791;50.696;4.396;2022-10-17T15:45:23;18.50;99.90
23100;DHT22;53791;50.696;4.396;2022-10-17T15:48:03;18.60;99.90
23100;DHT22;53791;50.696;4.396;2022-10-17T15:50:24;18.40;99.90
23100;DHT22;53791;50.696;4.396;2022-10-17T15:52:53;18.50;99.90
23100;DHT22;53791;50.696;4.396;2022-10-17T15:55:21;18.50;99.90
23100;DHT22;53791;50.696;4.396;2022-10-17T15:57:49;18.60;99.90
23100;DHT22;53791;50.696;4.396;2022-10-17T16:00:22;18.50;99.90
23100;DHT22;53791;50.696;4.396;2022-10-17T16:02:50;18.50;99.90
23100;DHT22;53791;50.696;4.396;2022-10-17T16:05:24;18.50;99.90
23100;DHT22;53791;50.696;4.396;2022-10-17T16:07:50;18.50;99.90
23100;DHT22;53791;50.696;4.396;2022-10-17T16:10:18;18.50;99.90
23100;DHT22;53791;50.696;4.396;2022-10-17T16:12:46;18.50;99.90
23100;DHT22;53791;50.696;4.396;2022-10-17T16:15:17;18.50;99.90
23100;DHT22;53791;50.696;4.396;2022-10-17T16:17:45;18.40;99.90
23100;DHT22;53791;50.696;4.396;2022-10-17T16:20:13;18.40;99.90
23100;DHT22;53791;50.696;4.396;2022-10-17T16:22:42;18.40;99.90
23100;DHT22;53791;50.696;4.396;2022-10-17T16:25:19;18.30;99.90
23100;DHT22;53791;50.696;4.396;2022-10-17T16:27:46;18.20;99.90
23100;DHT22;53791;50.696;4.396;2022-10-17T16:30:14;18.10;99.90
23100;DHT22;53791;50.696;4.396;2022-10-17T16:32:43;18.10;99.90
23100;DHT22;53791;50.696;4.396;2022-10-17T16:35:15;18.00;99.90
23100;DHT22;53791;50.696;4.396;2022-10-17T16:37:41;18.10;99.90
23100;DHT22;53791;50.696;4.396;2022-10-17T16:40:11;18.10;99.90
23100;DHT22;53791;50.696;4.396;2022-10-17T16:42:38;18.00;99.90
23100;DHT22;53791;50.696;4.396;2022-10-17T16:45:06;17.90;99.90
23100;DHT22;53791;50.696;4.396;2022-10-17T16:47:34;17.70;99.90
23100;DHT22;53791;50.696;4.396;2022-10-17T16:50:01;17.70;99.90
23100;DHT22;53791;50.696;4.396;2022-10-17T16:55:15;17.80;99.90
23100;DHT22;53791;50.696;4.396;2022-10-17T16:57:45;17.80;99.90
23100;DHT22;53791;50.696;4.396;2022-10-17T17:00:14;17.80;99.90
23100;DHT22;53791;50.696;4.396;2022-10-17T17:02:42;17.80;99.90
23100;DHT22;53791;50.696;4.396;2022-10-17T17:05:09;17.70;99.90